Airfield :
LOGIN :

Register | Disclaimer

   EN    FR    IT 

 










Legend :    VFR   Marginal VFR   IFR   Intensive IFR   Very Intensive IFR
Visi :
Ceiling :
>= 8 km
>= 3000ft
5 to 8 km
1000 to 3000 ft
1500m to 5 km
500 to 1000 ft
800 to 1500m
200 to 500 ft
< 800m
< 200 ft
Symbols :   Thunderstorms  Fog  Heavy snow  Heavy precipitations  Wind > 20 kt
SIGMETs :     Misc.  Thunderstorms  Icing  Turbulence  Mountain Waves  Volcanic Ashes







- Airport Elevation : 1487 ft
- IATA code : MUC


EDDM - München Franz Josef Strauss

CURRENT METAR :
  • 200050Z 26008KT 9999 -SHRA FEW045TCU 18/13 Q1012 NOSIG

EXPIRED METARs :
  • 200020Z 25004G14KT 210V320 9999 VCSH NSC 16/13 Q1012 BECMG 23015G25KT SHRA BKN040CB
  • 192350Z VRB01KT CAVOK 15/13 Q1011 BECMG 23015G25KT
  • 192320Z VRB01KT CAVOK 15/13 Q1011 NOSIG
  • 192250Z VRB01KT CAVOK 16/14 Q1011 NOSIG
  • 192220Z 04002KT CAVOK 16/14 Q1011 NOSIG

TAF COR TAF EDDM
Valid from the 20 at 00:00 until the 21 at 06:00 UTC


192349Z 2000/2106 VRB03KT 9999 FEW030
PROB30
TEMPO 2000/2003 25015G25KT -TSRA SCT060CB
TEMPO 2003/2007 RA
BECMG 2005/2007 26006KT
PROB40
TEMPO 2011/2021 28020G30KT TSRA BKN020CB
No reported NOTAMs for that airfield.
1 SIGMET reported for the München FIR (EDMM) :
 
Embedded thunderstorms
EDMM SIGMET 1 VALID 200003/200130 EDZF
EDMM MUNCHEN FIR EMBD TS FCST WI N4923 E01102 - N4826 E01156 - N4737 E01139 - N4827 E00937 - N4846 E00946 - N4923 E01102 TOP FL380 MOV NNE NC=



MET'MAP, your aeronautical weather chart ! - Copyright ORBIFLY December 2007 - Disclaimer

ORBIFLY MET'MAP TEAM :

Programming & Development : Alexandra Zaïnal
Concept & Development : Baudouin d'Aumeries
Co-Development & Prog : Marc-Olivier Méhu
Technical & hardware support : Manuel Goepfert

Contact : metmap@orbifly.com




SOURCES & CREDITS :

   NOAA